Fisher, Arkansas
Current Conditions -  °F | °C
As of 3:56 AM on Wednesday 26 Nov 2014 (Local Time) from KM19 Reporting Station
Haze Haze  
Wind Chill: 26°   Ceiling: Unl
Heat Index: 31°   Visibility: 6mi
Dew Point: 29°   Wind: 5mph
Humidity: 92%   Direction: 150°SSE
Pressure: 30.13"   Gusts: NA
Location:  35.49°N, 90.97°W
Report Text: KM19 260956Z AUTO 15004KT 6SM BR CLR M01/M02 A3013 RMK AO2 T10051016 SLP203
Loading
Personal Weather Stations






























Interactive Weather Map New forecast layout! Learn more

10-Day Weather Forecast

Advertisements
Track Severe Weather on mobile